PWSweather.com
Personal Weather Stations
Station Observations
RTINEZ
TerrassaES 08226

TerrassaES 08226

Lat: 41.5762194, Lon: 2.028993700000001

Elevation: 367

Station Type: Watson W8681

www.rtinez.cat

High Low Average
Temperature 82.8°F28.2°C 63.9°F17.7°C 72.0°F22.2°C
Dew Point 66.0°F18.9°C 47.0°F8.3°C 58.9°F14.9°C
Winds 13.6 mph 21.9 kmh Calm Calm 4.0 mph SW6.4 kmh SW
Wind Gusts 132.0 mph212.4 kmh -- 11.0 mph17.7 kmh
Humidity 91% 30% 67%
Pressure 30.09 in1019.0 mb 28.79 in974.9 mb -
Precipitation 0.00 in0.0 mm - -
Hour Temp Dew Point Humidity Winds Wind Gusts Pressure Precip Precip Rate Daily Precip Total
12:00 AM 66.4°F19.1°C 61.4°F16.3°C 84% 6.0 mph WSW9.7 kmh WSW 7.6 mph12.2 kmh 28.81 in975.6 mb 0.00 in0.0 mm 0.00 in0.0 mm 0.00 in0.0 mm
12:15 AM 66.4°F19.1°C 61.4°F16.3°C 84% 6.0 mph W9.7 kmh W 9.2 mph14.8 kmh 30.03 in1016.9 mb 0.00 in0.0 mm 0.00 in0.0 mm 0.00 in0.0 mm
12:30 AM 66.2°F19.0°C 61.2°F16.2°C 84% Calm Calm 6.9 mph11.1 kmh 30.02 in1016.6 mb 0.00 in0.0 mm 0.00 in0.0 mm 0.00 in0.0 mm
12:45 AM 66.0°F18.9°C 61.4°F16.3°C 85% 2.2 mph WSW3.5 kmh WSW 3.8 mph6.1 kmh 28.80 in975.3 mb 0.00 in0.0 mm 0.00 in0.0 mm 0.00 in0.0 mm
01:00 AM 66.0°F18.9°C 61.4°F16.3°C 85% 1.6 mph WSW2.6 kmh WSW 6.0 mph9.7 kmh 28.80 in975.3 mb 0.00 in0.0 mm 0.00 in0.0 mm 0.00 in0.0 mm
01:15 AM 66.4°F19.1°C 61.8°F16.6°C 85% 5.4 mph WSW8.7 kmh WSW 7.6 mph12.2 kmh 30.02 in1016.6 mb 0.00 in0.0 mm 0.00 in0.0 mm 0.00 in0.0 mm
01:30 AM 66.0°F18.9°C 61.7°F16.5°C 86% 1.6 mph W2.6 kmh W 4.5 mph7.2 kmh 30.02 in1016.6 mb 0.00 in0.0 mm 0.00 in0.0 mm 0.00 in0.0 mm
01:45 AM 66.0°F18.9°C 62.1°F16.7°C 87% 0.7 mph W1.1 kmh W 6.9 mph11.1 kmh 28.81 in975.6 mb 0.00 in0.0 mm 0.00 in0.0 mm 0.00 in0.0 mm
02:00 AM 65.8°F18.8°C 61.9°F16.6°C 87% 2.2 mph WNW3.5 kmh WNW 3.8 mph6.1 kmh 30.03 in1016.9 mb 0.00 in0.0 mm 0.00 in0.0 mm 0.00 in0.0 mm
02:15 AM 65.5°F18.6°C 62.2°F16.8°C 89% 3.1 mph NW5.0 kmh NW 5.4 mph8.7 kmh 30.02 in1016.6 mb 0.00 in0.0 mm 0.00 in0.0 mm 0.00 in0.0 mm
02:30 AM 65.3°F18.5°C 62.0°F16.7°C 89% Calm Calm 3.8 mph6.1 kmh 28.80 in975.3 mb 0.00 in0.0 mm 0.00 in0.0 mm 0.00 in0.0 mm
02:45 AM 64.9°F18.3°C 62.0°F16.7°C 90% 2.2 mph N3.5 kmh N 3.8 mph6.1 kmh 30.02 in1016.6 mb 0.00 in0.0 mm 0.00 in0.0 mm 0.00 in0.0 mm
03:00 AM 65.3°F18.5°C 62.6°F17.0°C 91% 1.6 mph N2.6 kmh N 4.5 mph7.2 kmh 30.02 in1016.6 mb 0.00 in0.0 mm 0.00 in0.0 mm 0.00 in0.0 mm
03:15 AM 65.3°F18.5°C 62.3°F16.8°C 90% 1.6 mph N2.6 kmh N 2.2 mph3.5 kmh 28.80 in975.3 mb 0.00 in0.0 mm 0.00 in0.0 mm 0.00 in0.0 mm
03:30 AM 65.3°F18.5°C 62.3°F16.8°C 90% 0.7 mph N1.1 kmh N 2.2 mph3.5 kmh 28.80 in975.3 mb 0.00 in0.0 mm 0.00 in0.0 mm 0.00 in0.0 mm
03:45 AM 64.8°F18.2°C 61.8°F16.6°C 90% 0.7 mph N1.1 kmh N 2.2 mph3.5 kmh 30.03 in1016.9 mb 0.00 in0.0 mm 0.00 in0.0 mm 0.00 in0.0 mm
04:00 AM 64.8°F18.2°C 61.8°F16.6°C 90% Calm Calm 2.2 mph3.5 kmh 30.03 in1016.9 mb 0.00 in0.0 mm 0.00 in0.0 mm 0.00 in0.0 mm
04:15 AM 64.8°F18.2°C 61.8°F16.6°C 90% 2.2 mph N3.5 kmh N 4.5 mph7.2 kmh 30.03 in1016.9 mb 0.00 in0.0 mm 0.00 in0.0 mm 0.00 in0.0 mm
04:30 AM 64.6°F18.1°C 61.6°F16.4°C 90% 0.7 mph N1.1 kmh N 3.8 mph6.1 kmh 30.03 in1016.9 mb 0.00 in0.0 mm 0.00 in0.0 mm 0.00 in0.0 mm
04:45 AM 64.6°F18.1°C 61.6°F16.4°C 90% Calm Calm 2.2 mph3.5 kmh 30.02 in1016.6 mb 0.00 in0.0 mm 0.00 in0.0 mm 0.00 in0.0 mm
05:00 AM 64.6°F18.1°C 61.6°F16.4°C 90% 1.6 mph N2.6 kmh N 3.8 mph6.1 kmh 28.81 in975.6 mb 0.00 in0.0 mm 0.00 in0.0 mm 0.00 in0.0 mm
05:15 AM 64.4°F18.0°C 61.4°F16.3°C 90% 0.7 mph N1.1 kmh N 3.1 mph5.0 kmh 30.02 in1016.6 mb 0.00 in0.0 mm 0.00 in0.0 mm 0.00 in0.0 mm
05:30 AM 64.6°F18.1°C 61.6°F16.4°C 90% 1.6 mph NNE2.6 kmh NNE 3.8 mph6.1 kmh 30.02 in1016.6 mb 0.00 in0.0 mm 0.00 in0.0 mm 0.00 in0.0 mm
05:45 AM 64.2°F17.9°C 60.9°F16.1°C 89% 2.2 mph N3.5 kmh N 3.8 mph6.1 kmh 28.80 in975.3 mb 0.00 in0.0 mm 0.00 in0.0 mm 0.00 in0.0 mm
06:00 AM 63.9°F17.7°C 60.6°F15.9°C 89% 0.7 mph N1.1 kmh N 3.8 mph6.1 kmh 30.03 in1016.9 mb 0.00 in0.0 mm 0.00 in0.0 mm 0.00 in0.0 mm
06:15 AM 63.9°F17.7°C 60.3°F15.7°C 88% Calm Calm 0.7 mph1.1 kmh 28.81 in975.6 mb 0.00 in0.0 mm 0.00 in0.0 mm 0.00 in0.0 mm
06:30 AM 63.9°F17.7°C 60.3°F15.7°C 88% Calm Calm -- 28.80 in975.3 mb 0.00 in0.0 mm 0.00 in0.0 mm 0.00 in0.0 mm
06:45 AM 63.9°F17.7°C 60.3°F15.7°C 88% 3.1 mph N5.0 kmh N 4.5 mph7.2 kmh 28.81 in975.6 mb 0.00 in0.0 mm 0.00 in0.0 mm 0.00 in0.0 mm
07:00 AM 63.9°F17.7°C 59.6°F15.3°C 86% 2.2 mph N3.5 kmh N 6.9 mph11.1 kmh 28.82 in976.0 mb 0.00 in0.0 mm 0.00 in0.0 mm 0.00 in0.0 mm
07:15 AM 64.6°F18.1°C 59.0°F15.0°C 82% 3.8 mph N6.1 kmh N 6.0 mph9.7 kmh 28.82 in976.0 mb 0.00 in0.0 mm 0.00 in0.0 mm 0.00 in0.0 mm
07:30 AM 66.2°F19.0°C 59.2°F15.1°C 78% 0.7 mph N1.1 kmh N 3.8 mph6.1 kmh 30.05 in1017.6 mb 0.00 in0.0 mm 0.00 in0.0 mm 0.00 in0.0 mm
07:45 AM 70.7°F21.5°C 60.5°F15.8°C 70% Calm Calm 2.2 mph3.5 kmh 28.83 in976.3 mb 0.00 in0.0 mm 0.00 in0.0 mm 0.00 in0.0 mm
08:00 AM 70.7°F21.5°C 58.0°F14.4°C 64% Calm Calm 3.8 mph6.1 kmh 30.06 in1017.9 mb 0.00 in0.0 mm 0.00 in0.0 mm 0.00 in0.0 mm
08:15 AM 71.2°F21.8°C 59.7°F15.4°C 67% Calm Calm 3.1 mph5.0 kmh 28.83 in976.3 mb 0.00 in0.0 mm 0.00 in0.0 mm 0.00 in0.0 mm
08:30 AM 73.0°F22.8°C 59.3°F15.2°C 62% 0.7 mph W1.1 kmh W 2.2 mph3.5 kmh 30.07 in1018.3 mb 0.00 in0.0 mm 0.00 in0.0 mm 0.00 in0.0 mm
08:45 AM 75.7°F24.3°C 61.4°F16.3°C 61% Calm Calm 3.1 mph5.0 kmh 28.85 in977.0 mb 0.00 in0.0 mm 0.00 in0.0 mm 0.00 in0.0 mm
09:00 AM 74.7°F23.7°C 58.0°F14.4°C 56% 0.7 mph E1.1 kmh E 4.5 mph7.2 kmh 30.08 in1018.6 mb 0.00 in0.0 mm 0.00 in0.0 mm 0.00 in0.0 mm
09:15 AM 75.7°F24.3°C 58.5°F14.7°C 55% 3.1 mph SE5.0 kmh SE 4.5 mph7.2 kmh 28.85 in977.0 mb 0.00 in0.0 mm 0.00 in0.0 mm 0.00 in0.0 mm
09:30 AM 75.7°F24.3°C 60.4°F15.8°C 59% 3.1 mph S5.0 kmh S 3.8 mph6.1 kmh 28.86 in977.3 mb 0.00 in0.0 mm 0.00 in0.0 mm 0.00 in0.0 mm
09:45 AM 75.7°F24.3°C 59.0°F15.0°C 56% 1.6 mph SSE2.6 kmh SSE 3.8 mph6.1 kmh 30.08 in1018.6 mb 0.00 in0.0 mm 0.00 in0.0 mm 0.00 in0.0 mm
10:00 AM 75.7°F24.3°C 59.0°F15.0°C 56% 1.6 mph SSE2.6 kmh SSE 4.5 mph7.2 kmh 28.86 in977.3 mb 0.00 in0.0 mm 0.00 in0.0 mm 0.00 in0.0 mm
10:15 AM 74.1°F23.4°C 57.5°F14.2°C 56% 1.6 mph SW2.6 kmh SW 132.0 mph212.4 kmh 28.86 in977.3 mb 0.00 in0.0 mm 0.00 in0.0 mm 0.00 in0.0 mm
10:30 AM 78.6°F25.9°C 60.6°F15.9°C 54% Calm Calm 3.8 mph6.1 kmh 28.86 in977.3 mb 0.00 in0.0 mm 0.00 in0.0 mm 0.00 in0.0 mm
10:45 AM 75.7°F24.3°C 58.5°F14.7°C 55% 1.6 mph S2.6 kmh S 6.9 mph11.1 kmh 30.09 in1019.0 mb 0.00 in0.0 mm 0.00 in0.0 mm 0.00 in0.0 mm
11:00 AM 75.7°F24.3°C 57.9°F14.4°C 54% 0.7 mph S1.1 kmh S 7.6 mph12.2 kmh 30.09 in1019.0 mb 0.00 in0.0 mm 0.00 in0.0 mm 0.00 in0.0 mm
11:15 AM 75.7°F24.3°C 56.9°F13.8°C 52% 7.6 mph W12.2 kmh W 13.6 mph21.9 kmh 28.86 in977.3 mb 0.00 in0.0 mm 0.00 in0.0 mm 0.00 in0.0 mm
11:30 AM 75.7°F24.3°C 56.4°F13.6°C 51% 5.4 mph W8.7 kmh W 11.4 mph18.3 kmh 30.08 in1018.6 mb 0.00 in0.0 mm 0.00 in0.0 mm 0.00 in0.0 mm
11:45 AM 75.7°F24.3°C 52.3°F11.3°C 44% 3.8 mph WSW6.1 kmh WSW 15.9 mph25.6 kmh 30.08 in1018.6 mb 0.00 in0.0 mm 0.00 in0.0 mm 0.00 in0.0 mm
12:00 PM 75.7°F24.3°C 52.9°F11.6°C 45% 9.2 mph W14.8 kmh W 14.5 mph23.3 kmh 30.07 in1018.3 mb 0.00 in0.0 mm 0.00 in0.0 mm 0.00 in0.0 mm
12:15 PM 75.7°F24.3°C 52.9°F11.6°C 45% 9.2 mph W14.8 kmh W 13.6 mph21.9 kmh 30.07 in1018.3 mb 0.00 in0.0 mm 0.00 in0.0 mm 0.00 in0.0 mm
12:30 PM 77.2°F25.1°C 52.3°F11.3°C 42% 6.0 mph W9.7 kmh W 15.2 mph24.5 kmh 30.07 in1018.3 mb 0.00 in0.0 mm 0.00 in0.0 mm 0.00 in0.0 mm
12:45 PM 77.2°F25.1°C 51.0°F10.6°C 40% 5.4 mph WSW8.7 kmh WSW 16.8 mph27.0 kmh 30.07 in1018.3 mb 0.00 in0.0 mm 0.00 in0.0 mm 0.00 in0.0 mm
01:00 PM 79.2°F26.2°C 50.7°F10.4°C 37% 9.8 mph W15.8 kmh W 15.9 mph25.6 kmh 28.84 in976.6 mb 0.00 in0.0 mm 0.00 in0.0 mm 0.00 in0.0 mm
01:15 PM 81.3°F27.4°C 47.0°F8.3°C 30% 9.8 mph W15.8 kmh W 16.8 mph27.0 kmh 30.05 in1017.6 mb 0.00 in0.0 mm 0.00 in0.0 mm 0.00 in0.0 mm
01:30 PM 79.5°F26.4°C 47.1°F8.4°C 32% 8.3 mph WSW13.4 kmh WSW 18.3 mph29.5 kmh 28.82 in976.0 mb 0.00 in0.0 mm 0.00 in0.0 mm 0.00 in0.0 mm
01:45 PM 79.7°F26.5°C 48.1°F8.9°C 33% 4.5 mph SSW7.2 kmh SSW 12.1 mph19.5 kmh 28.81 in975.6 mb 0.00 in0.0 mm 0.00 in0.0 mm 0.00 in0.0 mm
02:00 PM 79.7°F26.5°C 48.9°F9.4°C 34% 9.2 mph WSW14.8 kmh WSW 15.9 mph25.6 kmh 30.02 in1016.6 mb 0.00 in0.0 mm 0.00 in0.0 mm 0.00 in0.0 mm
02:15 PM 81.3°F27.4°C 47.8°F8.8°C 31% 1.6 mph WSW2.6 kmh WSW 15.9 mph25.6 kmh 28.81 in975.6 mb 0.00 in0.0 mm 0.00 in0.0 mm 0.00 in0.0 mm
02:30 PM 82.8°F28.2°C 51.6°F10.9°C 34% 7.6 mph SSW12.2 kmh SSW 14.5 mph23.3 kmh 30.02 in1016.6 mb 0.00 in0.0 mm 0.00 in0.0 mm 0.00 in0.0 mm
02:45 PM 82.2°F27.9°C 60.6°F15.9°C 48% 6.0 mph SSW9.7 kmh SSW 13.0 mph20.9 kmh 30.03 in1016.9 mb 0.00 in0.0 mm 0.00 in0.0 mm 0.00 in0.0 mm
03:00 PM 80.8°F27.1°C 60.5°F15.8°C 50% 3.1 mph SE5.0 kmh SE 17.4 mph28.0 kmh 28.81 in975.6 mb 0.00 in0.0 mm 0.00 in0.0 mm 0.00 in0.0 mm
03:15 PM 81.3°F27.4°C 60.4°F15.8°C 49% 1.6 mph SE2.6 kmh SE 13.0 mph20.9 kmh 28.81 in975.6 mb 0.00 in0.0 mm 0.00 in0.0 mm 0.00 in0.0 mm
03:30 PM 81.0°F27.2°C 56.4°F13.6°C 43% 6.9 mph WSW11.1 kmh WSW 19.0 mph30.6 kmh 30.03 in1016.9 mb 0.00 in0.0 mm 0.00 in0.0 mm 0.00 in0.0 mm
03:45 PM 80.4°F26.9°C 59.6°F15.3°C 49% 3.8 mph WSW6.1 kmh WSW 15.2 mph24.5 kmh 28.80 in975.3 mb 0.00 in0.0 mm 0.00 in0.0 mm 0.00 in0.0 mm
04:00 PM 80.4°F26.9°C 59.0°F15.0°C 48% 6.9 mph SW11.1 kmh SW 15.9 mph25.6 kmh 28.80 in975.3 mb 0.00 in0.0 mm 0.00 in0.0 mm 0.00 in0.0 mm
04:15 PM 81.1°F27.3°C 54.6°F12.6°C 40% 9.8 mph SW15.8 kmh SW 13.6 mph21.9 kmh 28.79 in974.9 mb 0.00 in0.0 mm 0.00 in0.0 mm 0.00 in0.0 mm
04:30 PM 80.6°F27.0°C 53.4°F11.9°C 39% 10.7 mph WSW17.2 kmh WSW 13.6 mph21.9 kmh 30.02 in1016.6 mb 0.00 in0.0 mm 0.00 in0.0 mm 0.00 in0.0 mm
04:45 PM 81.1°F27.3°C 53.2°F11.8°C 38% 9.2 mph W14.8 kmh W 22.8 mph36.7 kmh 30.02 in1016.6 mb 0.00 in0.0 mm 0.00 in0.0 mm 0.00 in0.0 mm
05:00 PM 80.8°F27.1°C 52.8°F11.6°C 38% 13.6 mph WNW21.9 kmh WNW 22.1 mph35.6 kmh 28.79 in974.9 mb 0.00 in0.0 mm 0.00 in0.0 mm 0.00 in0.0 mm
05:15 PM 79.7°F26.5°C 54.0°F12.2°C 41% 11.4 mph W18.3 kmh W 20.6 mph33.2 kmh 30.02 in1016.6 mb 0.00 in0.0 mm 0.00 in0.0 mm 0.00 in0.0 mm
05:30 PM 79.5°F26.4°C 54.5°F12.5°C 42% 9.2 mph W14.8 kmh W 18.3 mph29.5 kmh 30.02 in1016.6 mb 0.00 in0.0 mm 0.00 in0.0 mm 0.00 in0.0 mm
05:45 PM 79.2°F26.2°C 55.4°F13.0°C 44% 9.8 mph W15.8 kmh W 17.4 mph28.0 kmh 28.80 in975.3 mb 0.00 in0.0 mm 0.00 in0.0 mm 0.00 in0.0 mm
06:00 PM 77.2°F25.1°C 56.0°F13.3°C 48% 12.1 mph W19.5 kmh W 17.4 mph28.0 kmh 30.03 in1016.9 mb 0.00 in0.0 mm 0.00 in0.0 mm 0.00 in0.0 mm
06:15 PM 75.7°F24.3°C 56.4°F13.6°C 51% 9.8 mph W15.8 kmh W 19.7 mph31.7 kmh 30.03 in1016.9 mb 0.00 in0.0 mm 0.00 in0.0 mm 0.00 in0.0 mm
06:30 PM 75.4°F24.1°C 57.1°F13.9°C 53% 9.2 mph W14.8 kmh W 19.0 mph30.6 kmh 28.81 in975.6 mb 0.00 in0.0 mm 0.00 in0.0 mm 0.00 in0.0 mm
06:45 PM 74.1°F23.4°C 58.4°F14.7°C 58% 10.7 mph WNW17.2 kmh WNW 19.0 mph30.6 kmh 30.02 in1016.6 mb 0.00 in0.0 mm 0.00 in0.0 mm 0.00 in0.0 mm
07:00 PM 73.0°F22.8°C 59.3°F15.2°C 62% 12.1 mph W19.5 kmh W 16.8 mph27.0 kmh 30.02 in1016.6 mb 0.00 in0.0 mm 0.00 in0.0 mm 0.00 in0.0 mm
07:15 PM 72.9°F22.7°C 59.6°F15.3°C 63% 10.7 mph W17.2 kmh W 13.6 mph21.9 kmh 28.80 in975.3 mb 0.00 in0.0 mm 0.00 in0.0 mm 0.00 in0.0 mm
07:30 PM 72.3°F22.4°C 60.4°F15.8°C 66% 10.7 mph W17.2 kmh W 15.9 mph25.6 kmh 28.81 in975.6 mb 0.00 in0.0 mm 0.00 in0.0 mm 0.00 in0.0 mm
07:45 PM 71.8°F22.1°C 60.7°F15.9°C 68% 9.8 mph WNW15.8 kmh WNW 15.2 mph24.5 kmh 30.04 in1017.3 mb 0.00 in0.0 mm 0.00 in0.0 mm 0.00 in0.0 mm
08:00 PM 71.6°F22.0°C 60.5°F15.8°C 68% 6.9 mph W11.1 kmh W 11.4 mph18.3 kmh 30.04 in1017.3 mb 0.00 in0.0 mm 0.00 in0.0 mm 0.00 in0.0 mm
08:15 PM 71.2°F21.8°C 61.0°F16.1°C 70% 6.0 mph WSW9.7 kmh WSW 12.1 mph19.5 kmh 28.82 in976.0 mb 0.00 in0.0 mm 0.00 in0.0 mm 0.00 in0.0 mm
08:30 PM 70.7°F21.5°C 61.3°F16.3°C 72% 7.6 mph W12.2 kmh W 10.7 mph17.2 kmh 30.04 in1017.3 mb 0.00 in0.0 mm 0.00 in0.0 mm 0.00 in0.0 mm
08:45 PM 70.5°F21.4°C 61.5°F16.4°C 73% 5.4 mph W8.7 kmh W 11.4 mph18.3 kmh 28.83 in976.3 mb 0.00 in0.0 mm 0.00 in0.0 mm 0.00 in0.0 mm
09:00 PM 70.3°F21.3°C 61.7°F16.5°C 74% 5.4 mph WNW8.7 kmh WNW 9.2 mph14.8 kmh 28.82 in976.0 mb 0.00 in0.0 mm 0.00 in0.0 mm 0.00 in0.0 mm
09:15 PM 69.8°F21.0°C 61.5°F16.4°C 75% 3.1 mph WNW5.0 kmh WNW 11.4 mph18.3 kmh 30.05 in1017.6 mb 0.00 in0.0 mm 0.00 in0.0 mm 0.00 in0.0 mm
09:30 PM 69.6°F20.9°C 62.5°F16.9°C 78% 2.2 mph WNW3.5 kmh WNW 8.3 mph13.4 kmh 30.06 in1017.9 mb 0.00 in0.0 mm 0.00 in0.0 mm 0.00 in0.0 mm
09:45 PM 69.4°F20.8°C 62.7°F17.1°C 79% 5.4 mph WNW8.7 kmh WNW 10.7 mph17.2 kmh 30.06 in1017.9 mb 0.00 in0.0 mm 0.00 in0.0 mm 0.00 in0.0 mm
10:00 PM 69.3°F20.7°C 62.9°F17.2°C 80% 3.1 mph WNW5.0 kmh WNW 7.6 mph12.2 kmh 28.84 in976.6 mb 0.00 in0.0 mm 0.00 in0.0 mm 0.00 in0.0 mm
10:15 PM 68.9°F20.5°C 62.9°F17.2°C 81% 3.8 mph WNW6.1 kmh WNW 6.9 mph11.1 kmh 30.07 in1018.3 mb 0.00 in0.0 mm 0.00 in0.0 mm 0.00 in0.0 mm
10:30 PM 68.7°F20.4°C 62.7°F17.1°C 81% 3.1 mph WNW5.0 kmh WNW 6.0 mph9.7 kmh 30.06 in1017.9 mb 0.00 in0.0 mm 0.00 in0.0 mm 0.00 in0.0 mm
10:45 PM 68.7°F20.4°C 63.7°F17.6°C 84% 3.1 mph NW5.0 kmh NW 7.6 mph12.2 kmh 28.84 in976.6 mb 0.00 in0.0 mm 0.00 in0.0 mm 0.00 in0.0 mm
11:00 PM 68.5°F20.3°C 64.2°F17.9°C 86% 4.5 mph WNW7.2 kmh WNW 6.9 mph11.1 kmh 28.84 in976.6 mb 0.00 in0.0 mm 0.00 in0.0 mm 0.00 in0.0 mm
11:15 PM 68.5°F20.3°C 64.9°F18.3°C 88% 3.8 mph W6.1 kmh W 6.9 mph11.1 kmh 28.84 in976.6 mb 0.00 in0.0 mm 0.00 in0.0 mm 0.00 in0.0 mm
11:30 PM 68.5°F20.3°C 65.5°F18.6°C 90% 6.9 mph WNW11.1 kmh WNW 11.4 mph18.3 kmh 28.84 in976.6 mb 0.00 in0.0 mm 0.00 in0.0 mm 0.00 in0.0 mm
11:45 PM 68.7°F20.4°C 66.0°F18.9°C 91% 4.5 mph WNW7.2 kmh WNW 10.7 mph17.2 kmh 30.07 in1018.3 mb 0.00 in0.0 mm 0.00 in0.0 mm 0.00 in0.0 mm